Time;durP1;ratioP1;P1;durP2;ratioP2;P2;SDS_P1;SDS_P2;PMS_P1;PMS_P2;Temp;Humidity;BMP_temperature;BMP_pressure;BME280_temperature;BME280_humidity;BME280_pressure;Samples;Min_cycle;Max_cycle;Signal;HPM_P1;HPM_P2
2023/09/27 00:01:50;;;;;;;15.05;6.13;;;;;;;-146.27;79.93;81769.53;5020032;28;20415;-69
2023/09/27 00:04:15;;;;;;;7.78;5.35;;;;;;;-146.27;79.95;81829.78;5012363;28;20022;-69
2023/09/27 00:06:41;;;;;;;9.43;5.97;;;;;;;-146.27;80.07;81813.72;5023152;28;20022;-69
2023/09/27 00:09:08;;;;;;;8.13;5.30;;;;;;;-146.27;80.14;81803.69;5019453;28;20049;-69
2023/09/27 00:11:34;;;;;;;8.52;5.70;;;;;;;-146.27;80.18;81799.66;5024698;28;20040;-70
2023/09/27 00:14:00;;;;;;;10.00;6.07;;;;;;;-146.27;80.17;81785.59;5024255;28;20045;-71
2023/09/27 00:16:25;;;;;;;10.35;5.32;;;;;;;-146.27;79.77;81805.69;5027847;28;20026;-70
2023/09/27 00:18:50;;;;;;;11.35;6.05;;;;;;;-146.27;79.91;81781.59;5022776;28;20018;-70
2023/09/27 00:21:16;;;;;;;8.85;5.60;;;;;;;-146.27;80.19;81833.81;5027166;28;20025;-71
2023/09/27 00:23:41;;;;;;;7.55;5.40;;;;;;;-146.27;80.56;81801.69;5028520;28;20035;-70
2023/09/27 00:26:07;;;;;;;6.80;5.45;;;;;;;-146.27;80.41;81821.75;5030451;28;20025;-70
2023/09/27 00:28:32;;;;;;;9.77;5.65;;;;;;;-146.27;80.23;81819.75;5022004;28;20097;-70
2023/09/27 00:30:57;;;;;;;13.50;6.00;;;;;;;-146.27;80.04;81813.72;5033069;28;20076;-70
2023/09/27 00:33:23;;;;;;;9.77;5.47;;;;;;;-146.27;80.40;81849.88;5030024;28;20029;-70
2023/09/27 00:35:49;;;;;;;8.15;5.60;;;;;;;-146.27;80.94;81839.84;5023632;28;20037;-70
2023/09/27 00:38:16;;;;;;;10.45;5.15;;;;;;;-146.27;80.07;81876.00;5019389;28;20036;-70
2023/09/27 00:40:48;;;;;;;7.85;5.43;;;;;;;-146.27;80.02;81869.97;5024769;28;20104;-70
2023/09/27 00:43:26;;;;;;;8.80;5.80;;;;;;;-146.27;80.69;81906.13;5027748;28;20455;-70
2023/09/27 00:46:05;;;;;;;7.95;5.25;;;;;;;-146.27;80.49;81898.09;5027264;28;20032;-70
2023/09/27 00:48:32;;;;;;;12.30;6.05;;;;;;;-146.27;80.40;81930.22;5013691;28;20040;-70
2023/09/27 00:50:59;;;;;;;8.13;5.90;;;;;;;-146.27;81.58;81880.00;5015958;28;20029;-71
2023/09/27 00:53:29;;;;;;;10.95;5.93;;;;;;;-146.27;81.12;81898.09;5026028;28;20029;-71
2023/09/27 00:55:55;;;;;;;10.68;5.63;;;;;;;-146.27;80.91;81894.06;5015694;28;20371;-72
2023/09/27 00:58:21;;;;;;;10.32;5.18;;;;;;;-146.27;80.59;81908.13;5027792;28;20031;-70
2023/09/27 01:00:49;;;;;;;6.57;5.75;;;;;;;-146.27;80.90;81880.00;5020987;28;20390;-69
2023/09/27 01:03:15;;;;;;;10.20;5.75;;;;;;;-146.27;80.97;81900.09;5021898;28;20104;-71
2023/09/27 01:05:44;;;;;;;10.68;6.13;;;;;;;-146.27;80.56;81936.25;5019694;28;20116;-70
2023/09/27 01:08:09;;;;;;;8.77;5.70;;;;;;;-146.27;80.43;81966.38;5023405;28;20063;-70
2023/09/27 01:10:35;;;;;;;10.20;5.88;;;;;;;-146.27;81.24;81950.31;5014646;28;20109;-71
2023/09/27 01:13:05;;;;;;;6.97;5.97;;;;;;;-146.27;80.34;81950.31;5024589;28;20021;-70
2023/09/27 01:15:32;;;;;;;11.25;5.70;;;;;;;-146.27;80.37;81930.22;5016704;28;20026;-70
2023/09/27 01:18:00;;;;;;;9.73;5.30;;;;;;;-146.27;80.30;81982.44;5028185;28;20389;-70
2023/09/27 01:20:27;;;;;;;9.30;5.72;;;;;;;-146.27;80.83;81970.41;5019016;28;20083;-70
2023/09/27 01:23:13;;;;;;;14.50;5.85;;;;;;;-146.27;81.25;81998.50;5022481;28;20048;-69
2023/09/27 01:25:39;;;;;;;9.15;5.93;;;;;;;-146.27;81.43;82008.56;5009643;28;20056;-71
2023/09/27 01:28:11;;;;;;;8.95;5.63;;;;;;;-146.27;80.97;82014.59;5023118;28;20029;-70
2023/09/27 01:30:38;;;;;;;9.93;5.93;;;;;;;-146.27;81.00;82024.63;5023361;28;20053;-70
2023/09/27 01:33:10;;;;;;;7.53;5.55;;;;;;;-146.27;81.93;82014.59;5026367;28;20500;-70
2023/09/27 01:35:40;;;;;;;10.18;6.05;;;;;;;-146.27;81.84;81988.47;5014186;28;20044;-71
2023/09/27 01:38:07;;;;;;;10.80;5.60;;;;;;;-146.27;81.62;81982.44;5023688;28;20156;-70
2023/09/27 01:40:38;;;;;;;10.20;6.18;;;;;;;-146.27;81.43;81924.19;5020769;28;20948;-70
2023/09/27 01:43:04;;;;;;;10.57;6.20;;;;;;;-146.27;82.22;81968.38;5021080;28;20030;-70
2023/09/27 01:45:31;;;;;;;9.63;6.13;;;;;;;-146.27;81.76;82014.59;5021321;28;20021;-70
2023/09/27 01:47:57;;;;;;;12.68;6.80;;;;;;;-146.27;81.49;82000.53;5022714;28;20148;-70
2023/09/27 01:50:24;;;;;;;8.13;6.05;;;;;;;-146.27;81.27;81972.41;5026519;28;20038;-70
2023/09/27 01:52:50;;;;;;;10.35;6.00;;;;;;;-146.27;81.82;82002.53;5015815;28;20496;-70
2023/09/27 01:55:16;;;;;;;12.30;7.22;;;;;;;-146.27;81.52;82044.72;5010877;28;20038;-70
2023/09/27 01:57:42;;;;;;;14.80;9.10;;;;;;;-146.27;81.55;82054.75;5022156;28;20034;-70
2023/09/27 02:00:11;;;;;;;8.98;7.20;;;;;;;-146.27;81.72;82044.72;5017986;28;20092;-70
2023/09/27 02:02:38;;;;;;;11.80;6.57;;;;;;;-146.27;81.75;82038.69;5022156;28;20026;-70
2023/09/27 02:05:03;;;;;;;11.75;5.88;;;;;;;-146.27;81.60;82052.75;5019044;28;20573;-70
2023/09/27 02:07:29;;;;;;;8.68;6.22;;;;;;;-146.27;81.37;82048.72;5021521;28;20113;-69
2023/09/27 02:09:55;;;;;;;8.60;6.35;;;;;;;-146.27;81.50;82066.81;5016318;28;20410;-70
2023/09/27 02:12:21;;;;;;;13.82;6.53;;;;;;;-146.27;81.40;82092.91;5013683;28;20037;-71
2023/09/27 02:14:46;;;;;;;10.18;6.07;;;;;;;-146.27;81.54;82082.88;5028314;28;20046;-70
2023/09/27 02:17:12;;;;;;;10.40;6.35;;;;;;;-146.27;81.57;82050.75;5023720;28;20540;-70
2023/09/27 02:19:37;;;;;;;8.48;5.60;;;;;;;-146.27;82.21;82090.91;5024863;28;20082;-70
2023/09/27 02:22:02;;;;;;;8.75;5.55;;;;;;;-146.27;81.32;82062.78;5027235;28;20176;-70
2023/09/27 02:24:28;;;;;;;10.68;6.22;;;;;;;-146.27;81.41;82042.69;5027734;28;20029;-70
2023/09/27 02:26:54;;;;;;;10.02;6.70;;;;;;;-146.27;82.33;82102.97;5015517;28;20036;-70
2023/09/27 02:29:20;;;;;;;12.43;6.60;;;;;;;-146.27;82.17;82090.91;5023752;28;20022;-72
2023/09/27 02:31:45;;;;;;;8.23;6.20;;;;;;;-146.27;82.38;82094.94;5020607;28;20057;-70
2023/09/27 02:34:12;;;;;;;8.70;5.82;;;;;;;-146.27;81.60;82086.91;5018684;28;20053;-70
2023/09/27 02:36:38;;;;;;;11.30;7.20;;;;;;;-146.27;82.10;82092.91;5015681;28;20398;-69
2023/09/27 02:39:04;;;;;;;13.07;6.38;;;;;;;-146.27;82.68;82119.03;5021488;28;20029;-70
2023/09/27 02:41:32;;;;;;;9.05;5.97;;;;;;;-146.27;81.70;82111.00;5019432;28;20029;-70
2023/09/27 02:43:57;;;;;;;8.95;6.13;;;;;;;-146.27;81.73;82088.91;5020402;28;20037;-69
2023/09/27 02:46:22;;;;;;;14.48;7.00;;;;;;;-146.27;81.49;82133.09;5027092;28;20026;-69
2023/09/27 02:48:48;;;;;;;9.57;6.18;;;;;;;-146.27;81.21;82117.03;5027819;28;20028;-69
2023/09/27 02:51:15;;;;;;;8.65;5.65;;;;;;;-146.27;81.19;82123.06;5027265;28;20029;-71
2023/09/27 02:53:41;;;;;;;8.98;5.20;;;;;;;-146.27;81.24;82115.00;5029259;28;20029;-70
2023/09/27 02:56:07;;;;;;;9.50;5.38;;;;;;;-146.27;81.38;82119.03;5020277;28;20080;-70
2023/09/27 02:58:32;;;;;;;11.60;6.38;;;;;;;-146.27;81.73;82135.09;5019258;28;20025;-70
2023/09/27 03:00:58;;;;;;;9.23;6.07;;;;;;;-146.27;81.48;82127.06;5019153;28;20108;-69
2023/09/27 03:03:24;;;;;;;10.60;5.65;;;;;;;-146.27;81.63;82125.06;5021495;28;20096;-69
2023/09/27 03:05:50;;;;;;;9.65;5.57;;;;;;;-146.27;81.61;82163.22;5022576;28;20091;-69
2023/09/27 03:08:16;;;;;;;8.32;6.05;;;;;;;-146.27;82.06;82159.22;5022370;28;20126;-70
2023/09/27 03:10:42;;;;;;;9.50;6.13;;;;;;;-146.27;81.42;82157.19;5016852;28;20051;-70
2023/09/27 03:13:09;;;;;;;8.40;5.47;;;;;;;-146.27;81.43;82135.09;5027571;28;20030;-69
2023/09/27 03:15:35;;;;;;;9.32;6.80;;;;;;;-146.27;82.20;82123.06;5017411;28;20036;-70
2023/09/27 03:18:01;;;;;;;10.65;6.70;;;;;;;-146.27;82.13;82163.22;5020945;28;20061;-70
2023/09/27 03:20:27;;;;;;;9.20;6.03;;;;;;;-146.27;82.02;82155.19;5020254;28;20056;-69
2023/09/27 03:22:52;;;;;;;10.20;6.38;;;;;;;-146.27;81.96;82129.06;5031626;28;20132;-70
2023/09/27 03:25:18;;;;;;;11.38;6.70;;;;;;;-146.27;81.91;82199.38;5024692;28;20018;-70
2023/09/27 03:27:44;;;;;;;14.40;7.22;;;;;;;-146.27;81.62;82143.13;5027078;28;20014;-70
2023/09/27 03:30:10;;;;;;;9.73;6.38;;;;;;;-146.27;82.45;82161.22;5015755;28;20036;-70
2023/09/27 03:32:36;;;;;;;10.02;5.80;;;;;;;-146.27;82.01;82175.28;5027762;28;20021;-70
2023/09/27 03:35:01;;;;;;;9.68;6.70;;;;;;;-146.27;82.62;82179.28;5026604;28;20018;-70
2023/09/27 03:37:27;;;;;;;9.60;6.18;;;;;;;-146.27;82.00;82086.91;5027083;28;20030;-70
2023/09/27 03:39:52;;;;;;;9.70;6.07;;;;;;;-146.27;81.87;82169.25;5021139;28;20069;-70
2023/09/27 03:42:22;;;;;;;11.77;6.10;;;;;;;-146.27;82.08;82197.38;5025664;28;20338;-70
2023/09/27 03:44:51;;;;;;;9.48;6.05;;;;;;;-146.27;81.90;82151.16;5024667;28;20034;-70
2023/09/27 03:47:16;;;;;;;12.10;6.43;;;;;;;-146.27;81.99;82185.31;5023488;28;20108;-70
2023/09/27 03:49:41;;;;;;;11.45;6.70;;;;;;;-146.27;81.56;82201.38;5031280;28;20124;-70
2023/09/27 03:52:08;;;;;;;7.70;5.90;;;;;;;-146.27;81.60;82223.47;5023487;28;20038;-70
2023/09/27 03:54:33;;;;;;;9.27;5.85;;;;;;;-146.27;82.02;82233.53;5028785;28;20060;-70
2023/09/27 03:56:59;;;;;;;11.07;6.78;;;;;;;-146.27;81.82;82239.56;5026386;28;20057;-71
2023/09/27 03:59:24;;;;;;;9.63;5.53;;;;;;;-146.27;82.11;82183.31;5018602;28;20034;-70
2023/09/27 04:01:51;;;;;;;12.55;6.70;;;;;;;-146.27;82.80;82213.44;5031246;28;20030;-70
2023/09/27 04:04:17;;;;;;;8.82;6.35;;;;;;;-146.27;83.12;82209.44;5026117;28;20026;-70
2023/09/27 04:06:42;;;;;;;11.63;6.40;;;;;;;-146.27;81.92;82209.44;5021161;28;20540;-70
2023/09/27 04:09:08;;;;;;;13.52;6.80;;;;;;;-146.27;82.17;82207.41;5028701;28;20025;-70
2023/09/27 04:11:34;;;;;;;14.80;7.05;;;;;;;-146.27;82.01;82193.34;5017958;28;20017;-70
2023/09/27 04:13:59;;;;;;;10.73;5.88;;;;;;;-146.27;82.17;82207.41;5020446;28;20100;-70
2023/09/27 04:16:28;;;;;;;11.15;6.45;;;;;;;-146.27;82.42;82191.34;5019642;28;20053;-69
2023/09/27 04:18:54;;;;;;;10.85;6.15;;;;;;;-146.27;82.18;82183.31;5029859;28;20516;-70
2023/09/27 04:21:19;;;;;;;14.38;6.50;;;;;;;-146.27;82.23;82223.47;5019829;28;20029;-70
2023/09/27 04:23:54;;;;;;;10.40;7.80;;;;;;;-146.27;82.51;82183.31;5029331;28;20048;-70
2023/09/27 04:26:20;;;;;;;9.25;6.03;;;;;;;-146.27;82.13;82215.44;5029810;28;20025;-70
2023/09/27 04:28:45;;;;;;;15.15;7.65;;;;;;;-146.27;82.63;82213.44;5034777;28;20492;-70
2023/09/27 04:31:11;;;;;;;10.50;7.22;;;;;;;-146.27;82.43;82211.44;5031645;28;20033;-69
2023/09/27 04:33:36;;;;;;;14.30;6.78;;;;;;;-146.27;82.20;82183.31;5017962;28;20025;-69
2023/09/27 04:36:01;;;;;;;8.55;5.97;;;;;;;-146.27;82.17;82221.47;5014409;28;20044;-69
2023/09/27 04:38:27;;;;;;;10.68;6.35;;;;;;;-146.27;81.84;82243.56;5026333;28;20055;-69
2023/09/27 04:40:52;;;;;;;9.98;6.63;;;;;;;-146.27;82.02;82249.59;5020274;28;20038;-69
2023/09/27 04:43:18;;;;;;;13.45;7.00;;;;;;;-146.27;82.20;82235.53;5015231;28;20021;-71
2023/09/27 04:45:43;;;;;;;10.38;6.93;;;;;;;-146.27;82.20;82255.63;5024824;28;20509;-71
2023/09/27 04:48:10;;;;;;;11.48;7.75;;;;;;;-146.27;82.36;82245.59;5017916;28;20036;-71
2023/09/27 04:50:35;;;;;;;12.85;7.60;;;;;;;-146.27;82.47;82239.56;5017716;28;20029;-70
2023/09/27 04:53:01;;;;;;;16.27;8.07;;;;;;;-146.27;82.85;82211.44;5013574;28;20505;-70
2023/09/27 04:55:27;;;;;;;15.00;8.05;;;;;;;-146.27;82.88;82227.50;5015875;28;20034;-70
2023/09/27 04:57:53;;;;;;;12.90;8.52;;;;;;;-146.27;83.61;82217.47;5018604;28;20034;-70
2023/09/27 05:00:18;;;;;;;13.57;9.10;;;;;;;-146.27;82.70;82205.41;5023589;28;20033;-70
2023/09/27 05:02:45;;;;;;;13.80;8.45;;;;;;;-146.27;82.48;82183.31;5013287;28;20698;-70
2023/09/27 05:05:11;;;;;;;11.00;8.70;;;;;;;-146.27;82.49;82181.31;5014499;28;20105;-70
2023/09/27 05:07:36;;;;;;;14.77;8.38;;;;;;;-146.27;82.71;82235.53;5021182;28;20084;-70
2023/09/27 05:10:03;;;;;;;12.25;7.85;;;;;;;-146.27;82.61;82243.56;5016910;28;20029;-70
2023/09/27 05:12:28;;;;;;;14.48;8.77;;;;;;;-146.27;83.07;82219.47;5026217;28;20033;-68
2023/09/27 05:14:56;;;;;;;14.05;8.65;;;;;;;-146.27;83.59;82239.56;5034809;28;20136;-71
2023/09/27 05:17:23;;;;;;;11.70;8.68;;;;;;;-146.27;83.06;82245.59;5021226;28;20033;-70
2023/09/27 05:19:49;;;;;;;14.27;8.32;;;;;;;-146.27;82.71;82219.47;5013471;28;20056;-75
2023/09/27 05:22:19;;;;;;;14.82;8.48;;;;;;;-146.27;82.41;82231.53;5025534;28;20435;-68
2023/09/27 05:24:44;;;;;;;14.75;9.45;;;;;;;-146.27;83.08;82255.63;5017255;28;20053;-67
2023/09/27 05:27:10;;;;;;;17.92;8.90;;;;;;;-146.27;83.83;82205.41;5028058;28;20088;-69
2023/09/27 05:29:35;;;;;;;17.35;10.07;;;;;;;-146.27;83.92;82191.34;5017129;28;20056;-70
2023/09/27 05:32:01;;;;;;;18.25;9.43;;;;;;;-146.27;84.10;82151.16;5018233;28;20033;-69
2023/09/27 05:34:29;;;;;;;19.00;9.98;;;;;;;-146.27;83.60;82163.22;5021050;28;20042;-68
2023/09/27 05:36:54;;;;;;;17.77;10.27;;;;;;;-146.27;83.76;82147.16;5019806;28;20032;-68
2023/09/27 05:39:20;;;;;;;21.58;11.77;;;;;;;-146.27;84.37;82159.22;5029886;28;20033;-69
2023/09/27 05:41:45;;;;;;;13.40;9.38;;;;;;;-146.27;83.71;82127.06;5021648;28;20066;-69
2023/09/27 05:44:11;;;;;;;20.90;11.52;;;;;;;-146.27;83.39;82115.00;5010338;28;20033;-70
2023/09/27 05:46:36;;;;;;;18.10;10.13;;;;;;;-146.27;83.47;82137.13;5014659;28;20041;-69
2023/09/27 05:49:02;;;;;;;20.75;10.43;;;;;;;-146.27;83.31;82106.97;5020566;28;20164;-69
2023/09/27 05:51:30;;;;;;;15.13;10.00;;;;;;;-146.27;83.62;82139.13;5023184;28;20037;-69
2023/09/27 05:53:56;;;;;;;18.08;11.07;;;;;;;-146.27;84.13;82127.06;5014692;28;20041;-68
2023/09/27 05:56:21;;;;;;;13.68;9.15;;;;;;;-146.27;84.33;82115.00;5009885;28;20175;-70
2023/09/27 05:58:47;;;;;;;18.80;10.00;;;;;;;-146.27;83.74;82145.16;5013156;28;20046;-70
2023/09/27 06:01:12;;;;;;;18.80;10.50;;;;;;;-146.27;83.58;82119.03;5016843;28;20030;-69
2023/09/27 06:03:38;;;;;;;16.52;9.90;;;;;;;-146.27;83.78;82137.13;5020207;28;20561;-70
2023/09/27 06:06:04;;;;;;;13.82;9.13;;;;;;;-146.27;83.50;82109.00;5017909;28;20101;-70
2023/09/27 06:08:30;;;;;;;12.73;9.07;;;;;;;-146.27;83.49;82111.00;5013585;28;20105;-69
2023/09/27 06:10:56;;;;;;;21.90;11.00;;;;;;;-146.27;84.40;82135.09;5016255;28;20044;-70
2023/09/27 06:13:22;;;;;;;18.20;10.25;;;;;;;-146.27;84.15;82074.84;5013256;28;20048;-69
2023/09/27 06:15:47;;;;;;;15.13;9.73;;;;;;;-146.27;84.16;82050.75;5023171;28;20033;-69
2023/09/27 06:18:13;;;;;;;18.55;10.85;;;;;;;-146.27;84.15;82062.78;5031003;28;20025;-68
2023/09/27 06:20:40;;;;;;;21.65;12.13;;;;;;;-146.27;84.58;82026.63;5023230;28;20030;-68
2023/09/27 06:23:06;;;;;;;28.30;12.68;;;;;;;-146.27;84.38;81994.50;5022834;28;20036;-68
2023/09/27 06:25:34;;;;;;;24.17;12.10;;;;;;;-146.27;84.67;82002.53;5018045;28;20030;-69
2023/09/27 06:28:03;;;;;;;16.85;11.98;;;;;;;-146.27;84.65;81990.47;5023604;28;20029;-69
2023/09/27 06:30:28;;;;;;;24.35;12.25;;;;;;;-146.27;84.67;81956.34;5022806;28;20490;-67
2023/09/27 06:32:54;;;;;;;26.38;13.40;;;;;;;-146.27;84.69;81994.50;5019151;28;20121;-69
2023/09/27 06:35:19;;;;;;;24.92;14.18;;;;;;;-146.27;84.62;81988.47;5021710;28;20433;-68
2023/09/27 06:37:48;;;;;;;20.67;13.00;;;;;;;-146.27;84.77;81982.44;5023824;28;20413;-68
2023/09/27 06:40:24;;;;;;;25.35;13.07;;;;;;;-146.27;84.90;81954.31;5017738;28;20064;-70
2023/09/27 06:42:49;;;;;;;21.88;13.80;;;;;;;-146.27;84.78;81974.41;5019360;28;20382;-68
2023/09/27 06:45:15;;;;;;;26.48;12.45;;;;;;;-146.27;84.83;81938.25;5022267;28;20025;-68
2023/09/27 06:47:44;;;;;;;20.15;13.75;;;;;;;-146.27;84.56;81946.28;5032936;28;20029;-68
2023/09/27 06:50:10;;;;;;;20.98;12.93;;;;;;;-146.27;84.50;81918.16;5027615;28;20104;-68
2023/09/27 06:52:37;;;;;;;23.75;13.60;;;;;;;-146.27;84.56;81900.09;5027460;28;20116;-68
2023/09/27 06:55:03;;;;;;;22.05;13.85;;;;;;;-146.27;84.55;81869.97;5023988;28;20052;-67
2023/09/27 06:57:28;;;;;;;24.20;13.45;;;;;;;-146.27;84.61;81884.03;5032824;28;20029;-68
2023/09/27 06:59:54;;;;;;;22.00;13.88;;;;;;;-146.27;84.73;81880.00;5025198;28;20099;-68
2023/09/27 07:02:19;;;;;;;27.00;14.27;;;;;;;-146.27;84.58;81869.97;5023871;28;20134;-68
2023/09/27 07:04:46;;;;;;;24.88;14.90;;;;;;;-146.27;84.61;81849.88;5027443;28;20036;-69
2023/09/27 07:07:12;;;;;;;28.63;15.45;;;;;;;-146.27;84.77;81898.09;5029477;28;20721;-68
2023/09/27 07:09:37;;;;;;;23.98;13.55;;;;;;;-146.27;84.86;81857.91;5019903;28;20049;-68
2023/09/27 07:12:03;;;;;;;29.08;15.40;;;;;;;-146.27;84.95;81855.91;5023425;28;20630;-68
2023/09/27 07:14:29;;;;;;;20.30;13.55;;;;;;;-146.27;84.78;81829.78;5027456;28;20050;-69
2023/09/27 07:16:54;;;;;;;21.40;14.13;;;;;;;-146.27;84.95;81819.75;5012541;28;20026;-68
2023/09/27 07:19:20;;;;;;;23.85;14.30;;;;;;;-146.27;84.95;81717.31;5018658;28;20056;-68
2023/09/27 07:21:45;;;;;;;18.45;13.23;;;;;;;-146.27;85.10;81845.88;5013749;28;20429;-68
2023/09/27 07:24:11;;;;;;;23.77;14.70;;;;;;;-146.27;85.24;81805.69;5013007;28;20475;-68
2023/09/27 07:26:41;;;;;;;21.55;13.82;;;;;;;-146.27;85.24;81805.69;5013409;28;20534;-68
2023/09/27 07:29:09;;;;;;;27.70;15.68;;;;;;;-146.27;85.22;81781.59;5015829;28;20529;-68
2023/09/27 07:31:36;;;;;;;23.02;14.18;;;;;;;-146.27;85.26;81735.41;5015520;28;20025;-67
2023/09/27 07:34:01;;;;;;;23.80;15.02;;;;;;;-146.27;85.25;81693.22;5024573;28;20037;-68
2023/09/27 07:36:27;;;;;;;28.77;16.13;;;;;;;-146.27;85.30;81701.25;5027162;28;20033;-67
2023/09/27 07:38:55;;;;;;;24.30;14.18;;;;;;;-146.27;85.21;81673.13;5021623;28;20088;-69
2023/09/27 07:41:20;;;;;;;35.80;16.45;;;;;;;-146.27;84.99;81661.09;5022631;28;20053;-70
2023/09/27 07:43:47;;;;;;;22.65;15.30;;;;;;;-146.27;84.86;81651.03;5025309;28;20466;-66
2023/09/27 07:46:14;;;;;;;22.73;15.68;;;;;;;-146.27;84.59;81653.06;5024843;28;20108;-67
2023/09/27 07:48:41;;;;;;;26.98;16.02;;;;;;;-146.27;84.73;81554.63;5019063;28;20045;-67
2023/09/27 07:51:14;;;;;;;28.58;15.85;;;;;;;-146.27;84.63;81570.69;5020929;28;20060;-67
2023/09/27 07:53:39;;;;;;;27.75;15.82;;;;;;;-146.27;84.69;81608.88;5025172;28;20101;-69
2023/09/27 07:56:09;;;;;;;26.10;15.55;;;;;;;-146.27;84.40;81556.66;5026508;28;20043;-67
2023/09/27 07:58:41;;;;;;;26.60;14.98;;;;;;;-146.27;84.37;81560.66;5021769;28;20026;-69
2023/09/27 08:01:07;;;;;;;25.37;15.87;;;;;;;-146.27;84.10;81524.50;5010745;28;20100;-67
2023/09/27 08:03:32;;;;;;;34.05;15.75;;;;;;;-146.27;83.93;81510.44;5020713;28;20025;-68
2023/09/27 08:05:58;;;;;;;41.20;15.90;;;;;;;-146.27;83.85;81508.44;5025347;28;20109;-67
2023/09/27 08:08:23;;;;;;;34.95;16.23;;;;;;;-146.27;83.68;81500.41;5015667;28;20110;-69
2023/09/27 08:10:49;;;;;;;28.35;16.30;;;;;;;-146.27;83.72;81524.50;5013359;28;20061;-68
2023/09/27 08:13:17;;;;;;;33.95;15.60;;;;;;;-146.27;83.63;81540.56;5022031;28;20026;-67
2023/09/27 08:15:44;;;;;;;33.55;17.25;;;;;;;-146.27;83.55;81484.34;5014815;28;20084;-67
2023/09/27 08:18:10;;;;;;;34.05;17.00;;;;;;;-146.27;83.79;81520.50;5011649;28;20026;-67
2023/09/27 08:20:35;;;;;;;27.80;16.23;;;;;;;-146.27;83.69;81488.38;5026140;28;20028;-68
2023/09/27 08:23:05;;;;;;;22.63;16.45;;;;;;;-146.27;83.60;81496.41;5028534;28;20190;-68
2023/09/27 08:25:30;;;;;;;35.33;16.75;;;;;;;-146.27;83.66;81500.41;5027740;28;20052;-69
2023/09/27 08:27:56;;;;;;;25.50;15.40;;;;;;;-146.27;83.69;81482.34;5030128;28;20026;-69
2023/09/27 08:30:22;;;;;;;28.35;15.85;;;;;;;-146.27;83.80;81484.34;5023822;28;20124;-68
2023/09/27 08:32:48;;;;;;;25.85;14.88;;;;;;;-146.27;83.74;81490.38;5024826;28;20115;-69
2023/09/27 08:35:14;;;;;;;22.25;15.07;;;;;;;-146.27;83.60;81508.44;5013039;28;20026;-70
2023/09/27 08:37:39;;;;;;;23.08;14.82;;;;;;;-146.27;83.78;81516.47;5029219;28;20029;-69
2023/09/27 08:40:07;;;;;;;20.02;13.60;;;;;;;-146.27;83.85;81496.41;5030720;28;20159;-69
2023/09/27 08:42:34;;;;;;;27.25;16.20;;;;;;;-146.27;84.25;81524.50;5029880;28;20108;-68
2023/09/27 08:45:00;;;;;;;22.35;15.10;;;;;;;-146.27;84.17;81464.25;5011328;28;20105;-67
2023/09/27 08:47:27;;;;;;;22.13;16.10;;;;;;;-146.27;84.34;81454.22;5012410;28;20026;-69
2023/09/27 08:49:55;;;;;;;27.95;15.85;;;;;;;-146.27;84.29;81468.28;5029210;28;20037;-70
2023/09/27 08:52:22;;;;;;;29.30;17.08;;;;;;;-146.27;84.17;81416.06;5024077;28;20090;-68
2023/09/27 08:54:48;;;;;;;25.92;17.20;;;;;;;-146.27;84.26;81464.25;5016931;28;20033;-68
2023/09/27 08:57:13;;;;;;;32.30;17.50;;;;;;;-146.27;84.42;81444.19;5010955;28;20021;-68
2023/09/27 08:59:39;;;;;;;27.83;17.40;;;;;;;-146.27;84.50;81452.22;5017556;28;20108;-68
2023/09/27 09:02:05;;;;;;;31.25;18.00;;;;;;;-146.27;84.63;81438.16;5016950;28;20029;-68
2023/09/27 09:04:32;;;;;;;32.72;17.67;;;;;;;-146.27;84.49;81365.84;5018803;28;20734;-67
2023/09/27 09:06:58;;;;;;;29.20;17.92;;;;;;;-146.27;84.44;81391.97;5028835;28;20014;-68
2023/09/27 09:09:26;;;;;;;27.83;17.73;;;;;;;-146.27;84.56;81379.91;5011459;28;20088;-67
2023/09/27 09:11:58;;;;;;;26.02;17.42;;;;;;;-146.27;84.35;81377.91;5025061;28;20037;-69
2023/09/27 09:14:49;;;;;;;25.13;16.83;;;;;;;-146.27;84.29;81371.88;5018785;28;20081;-71
2023/09/27 09:17:22;;;;;;;27.58;16.52;;;;;;;-146.27;84.45;81337.75;5011269;28;20030;-71
2023/09/27 09:20:21;;;;;;;28.95;18.23;;;;;;;-146.27;84.73;81355.81;5031492;28;20201;-70
2023/09/27 09:22:50;;;;;;;27.83;17.77;;;;;;;-146.27;84.57;81343.75;5013893;28;20029;-68
2023/09/27 09:25:15;;;;;;;28.52;17.75;;;;;;;-146.27;84.60;81343.75;5016214;28;20502;-69
2023/09/27 09:27:41;;;;;;;28.05;18.27;;;;;;;-146.27;84.33;81299.59;5015798;28;20021;-68
2023/09/27 09:30:10;;;;;;;26.38;17.92;;;;;;;-146.27;84.42;81289.53;5010332;28;20034;-69
2023/09/27 09:32:49;;;;;;;27.00;16.17;;;;;;;-146.27;84.32;81223.25;5028881;28;20021;-70
2023/09/27 09:35:30;;;;;;;30.63;16.92;;;;;;;-146.27;84.33;81243.34;5029436;28;20832;-70
2023/09/27 09:37:56;;;;;;;24.98;16.75;;;;;;;-146.27;84.27;81183.09;5011519;28;20026;-70
2023/09/27 09:40:22;;;;;;;22.83;16.42;;;;;;;-146.27;84.04;81195.16;5019571;28;21498;-70
2023/09/27 09:42:48;;;;;;;24.10;16.20;;;;;;;-146.27;83.68;81199.16;5041707;28;20496;-70
2023/09/27 09:45:14;;;;;;;28.23;15.70;;;;;;;-146.27;83.45;81175.06;5016554;28;20026;-71
2023/09/27 09:47:43;;;;;;;26.02;15.90;;;;;;;-146.27;83.31;81138.91;5010494;28;20130;-69
2023/09/27 09:50:16;;;;;;;27.75;15.45;;;;;;;-146.27;83.20;81104.78;5020771;28;20047;-69
2023/09/27 09:52:58;;;;;;;21.88;15.75;;;;;;;-146.27;83.45;81148.97;5015450;28;20025;-69
2023/09/27 09:55:26;;;;;;;30.50;16.77;;;;;;;-146.27;82.77;81106.78;5029169;28;20030;-69
2023/09/27 09:58:06;;;;;;;35.00;16.35;;;;;;;-146.27;82.11;81108.81;5028162;28;20116;-69
2023/09/27 10:00:35;;;;;;;26.23;15.93;;;;;;;-146.27;81.80;81078.69;5018203;28;20033;-69
2023/09/27 10:03:01;;;;;;;27.40;15.93;;;;;;;-146.27;81.48;81056.59;5023510;28;20134;-69
2023/09/27 10:05:37;;;;;;;22.83;14.52;;;;;;;-146.27;81.33;81058.59;5015575;28;20021;-69
2023/09/27 10:08:04;;;;;;;23.00;14.15;;;;;;;-146.27;81.24;81076.66;5025021;28;20040;-69
2023/09/27 10:10:30;;;;;;;24.17;14.30;;;;;;;-146.27;80.98;81094.75;5023421;28;20035;-69
2023/09/27 10:12:57;;;;;;;21.15;14.77;;;;;;;-146.27;81.25;81110.81;5016027;28;20402;-69
2023/09/27 10:15:23;;;;;;;29.52;16.27;;;;;;;-146.27;81.34;81128.88;5021280;28;20038;-69
2023/09/27 10:17:49;;;;;;;22.33;14.98;;;;;;;-146.27;81.29;81098.75;5025925;28;20029;-71
2023/09/27 10:20:19;;;;;;;25.95;15.70;;;;;;;-146.27;81.70;81070.66;5013836;28;20032;-70
2023/09/27 10:22:46;;;;;;;25.00;16.35;;;;;;;-146.27;81.35;81062.59;5010076;28;20036;-72
2023/09/27 10:25:25;;;;;;;26.58;15.52;;;;;;;-146.27;81.16;81030.47;5015232;28;20033;-71
2023/09/27 10:28:01;;;;;;;27.70;16.58;;;;;;;-146.27;81.38;81014.41;5028734;28;20478;-70
2023/09/27 10:30:48;;;;;;;27.60;15.82;;;;;;;-146.27;81.36;81014.41;5012776;28;20110;-69
2023/09/27 10:33:20;;;;;;;27.35;15.98;;;;;;;-146.27;81.64;80950.16;5023690;28;20049;-70
2023/09/27 10:35:46;;;;;;;26.00;16.20;;;;;;;-146.27;80.83;80928.06;5026942;28;20502;-70
2023/09/27 10:38:12;;;;;;;24.85;15.15;;;;;;;-146.27;80.42;80920.03;5028429;28;20116;-71
2023/09/27 10:40:43;;;;;;;29.55;14.43;;;;;;;-146.27;79.82;80901.97;5012277;28;20030;-71
2023/09/27 10:43:08;;;;;;;23.23;14.20;;;;;;;-146.27;79.59;80865.81;5009988;28;20034;-70
2023/09/27 10:45:34;;;;;;;21.38;13.32;;;;;;;-146.27;79.54;80727.28;5018939;28;20029;-71
2023/09/27 10:48:19;;;;;;;25.42;13.27;;;;;;;-146.27;79.34;80652.97;5029516;28;20385;-71
2023/09/27 10:50:57;;;;;;;18.25;10.20;;;;;;;-146.27;77.67;80596.75;5029211;28;20033;-69
2023/09/27 10:53:23;;;;;;;17.63;9.27;;;;;;;-146.27;76.66;80464.22;5025528;28;20078;-70
2023/09/27 10:55:48;;;;;;;17.08;10.07;;;;;;;-146.27;75.02;80303.59;5027572;28;20033;-69
2023/09/27 10:58:17;;;;;;;14.40;9.07;;;;;;;-146.27;72.96;80205.22;5028144;28;20397;-69
2023/09/27 11:01:11;;;;;;;18.50;9.93;;;;;;;-146.27;74.06;79978.38;5029578;28;20041;-69
2023/09/27 11:03:37;;;;;;;20.92;8.93;;;;;;;-146.27;72.00;79751.50;5011674;28;20511;-68
2023/09/27 11:06:14;;;;;;;19.80;9.43;;;;;;;-146.27;68.61;79615.00;5013198;28;20164;-70
2023/09/27 11:08:40;;;;;;;16.00;9.25;;;;;;;-146.27;65.62;79504.59;5013735;28;20018;-69